Time;durP1;ratioP1;P1;durP2;ratioP2;P2;SDS_P1;SDS_P2;PMS_P1;PMS_P2;Temp;Humidity;BMP_temperature;BMP_pressure;BME280_temperature;BME280_humidity;BME280_pressure;Samples;Min_cycle;Max_cycle;Signal;HPM_P1;HPM_P2
2020/12/26 00:01:44;;;;;;;12.10;5.55;;;;;;;-0.37;80.48;96705.27;1745125;82;21161;-90
2020/12/26 00:04:11;;;;;;;9.93;5.40;;;;;;;-0.39;79.95;96705.19;1745032;82;21146;-90
2020/12/26 00:06:38;;;;;;;9.35;5.70;;;;;;;-0.52;79.88;96691.70;1745125;82;21150;-90
2020/12/26 00:09:06;;;;;;;9.30;5.72;;;;;;;-0.52;79.88;96691.70;1744942;81;21122;-90
2020/12/26 00:11:33;;;;;;;7.90;4.97;;;;;;;-0.43;80.45;96713.89;1745303;82;21133;-90
2020/12/26 00:14:00;;;;;;;10.82;6.80;;;;;;;-0.53;80.19;96695.32;1745018;82;21178;-90
2020/12/26 00:16:27;;;;;;;12.70;6.72;;;;;;;-0.44;80.10;96711.50;1745162;82;21130;-89
2020/12/26 00:18:54;;;;;;;11.18;5.80;;;;;;;-0.44;80.10;96711.50;1744902;81;21111;-90
2020/12/26 00:21:21;;;;;;;10.35;6.28;;;;;;;-0.43;80.29;96720.41;1745104;82;21517;-90
2020/12/26 00:23:48;;;;;;;11.55;6.80;;;;;;;-0.41;80.36;96713.71;1745075;82;21497;-90
2020/12/26 00:26:18;;;;;;;9.80;5.42;;;;;;;-0.43;79.91;96717.00;1745034;82;21146;-90
2020/12/26 00:28:45;;;;;;;10.03;5.03;;;;;;;-0.46;79.23;96709.61;1745359;81;21226;-89
2020/12/26 00:31:16;;;;;;;8.85;5.47;;;;;;;-0.47;78.87;96723.63;1745030;82;21153;-91
2020/12/26 00:33:44;;;;;;;9.60;4.78;;;;;;;-0.46;79.26;96727.33;1745139;82;21086;-90
2020/12/26 00:36:11;;;;;;;8.15;3.70;;;;;;;-0.46;79.28;96727.83;1745007;82;21162;-90
2020/12/26 00:38:38;;;;;;;8.10;3.02;;;;;;;-0.49;77.67;96724.34;1745048;81;21119;-89
2020/12/26 00:41:05;;;;;;;9.78;4.67;;;;;;;-0.49;77.67;96724.34;1744951;82;21146;-90
2020/12/26 00:43:32;;;;;;;8.18;4.08;;;;;;;-0.51;77.81;96733.66;1745048;82;21146;-90
2020/12/26 00:45:59;;;;;;;4.53;3.15;;;;;;;-0.53;77.57;96726.56;1744994;82;21154;-89
2020/12/26 00:48:26;;;;;;;9.80;4.25;;;;;;;-0.54;77.43;96729.38;1745200;81;21171;-89
2020/12/26 00:50:53;;;;;;;9.10;4.72;;;;;;;-0.54;77.96;96734.59;1744948;82;21509;-89
2020/12/26 00:53:20;;;;;;;7.35;4.40;;;;;;;-0.54;78.20;96734.59;1745138;82;21450;-89
2020/12/26 00:55:47;;;;;;;7.90;4.17;;;;;;;-0.56;78.12;96735.27;1745050;82;21492;-89
2020/12/26 00:58:14;;;;;;;7.20;4.47;;;;;;;-0.56;78.16;96740.00;1744357;81;21503;-90
2020/12/26 01:00:41;;;;;;;7.15;4.30;;;;;;;-0.55;78.14;96737.69;1737169;82;21616;-90
2020/12/26 01:03:08;;;;;;;5.53;3.08;;;;;;;-0.56;78.33;96742.60;1737159;83;21608;-89
2020/12/26 01:05:34;;;;;;;7.95;4.22;;;;;;;-0.57;77.88;96744.08;1737233;82;21292;-90
2020/12/26 01:08:01;;;;;;;5.40;3.10;;;;;;;-0.59;77.79;96748.20;1737105;81;21150;-89
2020/12/26 01:10:29;;;;;;;6.90;4.40;;;;;;;-0.62;77.68;96728.58;1736998;83;21526;-90
2020/12/26 01:12:56;;;;;;;6.80;3.62;;;;;;;-0.63;78.02;96751.72;1737351;83;21624;-89
2020/12/26 01:15:23;;;;;;;5.53;3.25;;;;;;;-0.62;78.37;96746.80;1737116;82;21124;-90
2020/12/26 01:17:50;;;;;;;4.05;2.42;;;;;;;-0.60;78.20;96743.49;1737115;81;21165;-89
2020/12/26 01:20:17;;;;;;;3.62;2.17;;;;;;;-0.62;77.99;96741.59;1737010;83;21115;-89
2020/12/26 01:22:43;;;;;;;4.22;2.33;;;;;;;-0.66;78.03;96731.30;1737423;83;21142;-89
2020/12/26 01:25:12;;;;;;;4.28;1.85;;;;;;;-0.75;78.98;96729.91;1737127;83;21542;-89
2020/12/26 01:27:39;;;;;;;5.30;3.22;;;;;;;-0.75;78.98;96729.91;1737133;83;21158;-89
2020/12/26 01:30:07;;;;;;;4.25;2.25;;;;;;;-0.77;79.21;96740.23;1737209;81;21310;-90
2020/12/26 01:32:34;;;;;;;4.20;2.02;;;;;;;-0.81;79.36;96732.54;1737111;82;21257;-89
2020/12/26 01:35:01;;;;;;;3.70;2.00;;;;;;;-0.83;79.69;96735.86;1737324;83;21316;-89
2020/12/26 01:37:29;;;;;;;6.78;2.50;;;;;;;-0.84;79.78;96740.26;1737208;82;21292;-89
2020/12/26 01:39:56;;;;;;;3.10;1.50;;;;;;;-0.86;80.02;96734.43;1737022;81;21185;-89
2020/12/26 01:42:23;;;;;;;5.33;3.15;;;;;;;-0.87;80.02;96735.44;1737299;83;21280;-89
2020/12/26 01:44:51;;;;;;;3.17;2.67;;;;;;;-0.88;80.29;96742.95;1737237;82;21260;-89
2020/12/26 01:47:18;;;;;;;3.72;2.10;;;;;;;-0.90;80.41;96735.34;1737141;83;21262;-90
2020/12/26 01:49:47;;;;;;;3.65;2.00;;;;;;;-0.89;80.56;96737.44;1736955;81;21503;-90
2020/12/26 01:52:15;;;;;;;6.55;2.95;;;;;;;-0.91;80.53;96721.23;1737032;82;21163;-90
2020/12/26 01:54:43;;;;;;;7.08;4.05;;;;;;;-0.91;80.77;96723.84;1737388;82;21158;-89
2020/12/26 01:57:10;;;;;;;4.60;2.67;;;;;;;-0.91;80.77;96723.84;1737106;82;21130;-89
2020/12/26 01:59:37;;;;;;;5.70;3.17;;;;;;;-0.92;80.73;96721.73;1737042;81;21123;-89
2020/12/26 02:02:09;;;;;;;4.75;2.80;;;;;;;-0.91;80.56;96721.23;1737113;82;21130;-90
2020/12/26 02:04:36;;;;;;;4.53;2.42;;;;;;;-0.89;80.23;96719.23;1737210;83;21482;-89
2020/12/26 02:07:05;;;;;;;4.28;2.25;;;;;;;-0.89;80.23;96719.23;1737020;83;21137;-89
2020/12/26 02:09:34;;;;;;;5.95;3.02;;;;;;;-0.90;80.11;96721.53;1737118;81;21674;-89
2020/12/26 02:12:01;;;;;;;3.22;2.05;;;;;;;-0.91;80.10;96738.16;1737022;82;21145;-89
2020/12/26 02:14:28;;;;;;;4.53;2.85;;;;;;;-0.91;80.20;96727.74;1737090;83;21134;-89
2020/12/26 02:16:55;;;;;;;7.30;4.53;;;;;;;-0.94;80.38;96741.16;1737059;83;21134;-89
2020/12/26 02:19:25;;;;;;;5.58;3.92;;;;;;;-0.94;80.38;96741.16;1737034;81;21168;-90
2020/12/26 02:21:53;;;;;;;6.35;3.35;;;;;;;-0.95;80.73;96744.77;1737201;83;21126;-89
2020/12/26 02:24:20;;;;;;;5.75;3.72;;;;;;;-0.95;81.03;96762.98;1737108;82;21160;-89
2020/12/26 02:26:48;;;;;;;8.95;3.15;;;;;;;-0.96;80.93;96744.47;1737198;82;21289;-89
2020/12/26 02:29:15;;;;;;;6.80;3.05;;;;;;;-0.97;81.11;96733.27;1737055;81;21151;-89
2020/12/26 02:31:42;;;;;;;6.20;3.22;;;;;;;-0.99;81.49;96746.16;1736999;83;21142;-89
2020/12/26 02:34:09;;;;;;;6.42;3.58;;;;;;;-0.99;81.49;96746.16;1737105;83;21158;-89
2020/12/26 02:36:36;;;;;;;7.78;4.30;;;;;;;-1.02;81.36;96740.86;1737027;83;21133;-89
2020/12/26 02:39:07;;;;;;;5.95;3.50;;;;;;;-1.02;81.44;96743.96;1737133;81;21540;-89
2020/12/26 02:41:35;;;;;;;4.95;3.20;;;;;;;-1.02;81.41;96747.86;1737006;83;21489;-90
2020/12/26 02:44:01;;;;;;;5.47;2.72;;;;;;;-1.02;81.20;96738.76;1737132;82;21150;-89
2020/12/26 02:46:28;;;;;;;6.72;3.87;;;;;;;-1.05;80.67;96746.47;1737123;82;21616;-90
2020/12/26 02:48:56;;;;;;;5.33;3.08;;;;;;;-1.17;80.42;96727.27;1736990;81;21150;-89
2020/12/26 02:51:23;;;;;;;4.62;2.65;;;;;;;-1.09;80.03;96739.28;1736957;83;21481;-89
2020/12/26 02:53:49;;;;;;;3.58;2.35;;;;;;;-1.11;79.53;96743.39;1737081;82;21138;-89
2020/12/26 02:56:19;;;;;;;3.85;2.42;;;;;;;-1.11;79.53;96743.39;1737077;82;21499;-89
2020/12/26 02:58:47;;;;;;;7.35;3.75;;;;;;;-1.11;79.42;96749.09;1738141;81;21264;-89
2020/12/26 03:01:14;;;;;;;3.80;2.35;;;;;;;-1.12;79.28;96746.19;1775694;81;21091;-89
2020/12/26 03:03:40;;;;;;;7.08;3.87;;;;;;;-1.13;79.34;96745.86;1775580;81;21138;-89
2020/12/26 03:06:07;;;;;;;4.12;3.20;;;;;;;-1.13;79.30;96744.06;1775487;81;21122;-89
2020/12/26 03:08:34;;;;;;;8.35;4.10;;;;;;;-1.11;78.95;96743.39;1775525;81;21139;-89
2020/12/26 03:11:01;;;;;;;6.90;3.50;;;;;;;-1.13;79.02;96746.66;1775733;81;21114;-89
2020/12/26 03:13:29;;;;;;;5.30;3.02;;;;;;;-1.12;78.94;96752.70;1775646;81;21134;-89
2020/12/26 03:15:58;;;;;;;11.22;4.72;;;;;;;-1.13;79.01;96757.07;1775519;81;21130;-89
2020/12/26 03:18:27;;;;;;;6.08;3.83;;;;;;;-1.12;78.90;96757.90;1775545;81;21126;-89
2020/12/26 03:20:53;;;;;;;6.35;3.08;;;;;;;-1.13;78.89;96754.47;1749614;81;21169;-88
2020/12/26 03:23:20;;;;;;;9.20;5.42;;;;;;;-1.13;78.95;96749.77;1744925;81;21430;-89
2020/12/26 03:25:47;;;;;;;7.33;3.98;;;;;;;-1.14;79.16;96765.88;1745049;81;21490;-89
2020/12/26 03:28:14;;;;;;;5.72;4.08;;;;;;;-1.15;78.96;96759.08;1744924;81;21172;-89
2020/12/26 03:30:41;;;;;;;6.08;4.03;;;;;;;-1.15;78.71;96770.78;1744894;82;21139;-88
2020/12/26 03:33:08;;;;;;;8.83;5.75;;;;;;;-1.16;78.78;96771.78;1744990;81;21486;-89
2020/12/26 03:35:35;;;;;;;6.67;4.00;;;;;;;-1.16;79.10;96778.78;1745092;82;21454;-89
2020/12/26 03:38:02;;;;;;;6.33;3.95;;;;;;;-1.16;79.11;96774.89;1744854;81;21151;-88
2020/12/26 03:40:29;;;;;;;5.83;2.77;;;;;;;-1.16;79.28;96780.09;1744974;82;21163;-89
2020/12/26 03:42:57;;;;;;;5.28;3.27;;;;;;;-1.18;79.30;96779.48;1744965;82;21518;-89
2020/12/26 03:45:24;;;;;;;8.13;4.67;;;;;;;-1.18;79.32;96784.69;1744928;82;21513;-89
2020/12/26 03:47:50;;;;;;;6.47;4.00;;;;;;;-1.20;79.49;96790.09;1744938;81;21553;-89
2020/12/26 03:50:17;;;;;;;6.95;3.62;;;;;;;-1.21;79.54;96786.70;1744887;81;21145;-90
2020/12/26 03:52:44;;;;;;;5.35;3.10;;;;;;;-1.21;79.62;96791.90;1744875;82;21137;-88
2020/12/26 03:55:11;;;;;;;10.23;4.03;;;;;;;-1.20;79.72;96799.20;1745034;82;21478;-89
2020/12/26 03:57:38;;;;;;;9.18;5.33;;;;;;;-1.21;79.85;96810.61;1744952;82;21157;-89
2020/12/26 04:00:08;;;;;;;8.65;4.45;;;;;;;-1.20;80.01;96803.91;1744912;81;21471;-89
2020/12/26 04:02:35;;;;;;;9.53;5.10;;;;;;;-1.20;80.34;96807.00;1745111;82;21110;-88
2020/12/26 04:05:03;;;;;;;6.05;3.65;;;;;;;-1.24;80.44;96805.31;1744972;82;21137;-88
2020/12/26 04:07:30;;;;;;;9.08;5.25;;;;;;;-1.27;80.94;96804.41;1744927;82;21134;-89
2020/12/26 04:09:57;;;;;;;5.60;3.05;;;;;;;-1.29;81.03;96813.38;1745090;81;21478;-89
2020/12/26 04:12:24;;;;;;;5.30;3.20;;;;;;;-1.34;81.19;96815.79;1745048;82;21130;-89
2020/12/26 04:14:50;;;;;;;6.40;3.85;;;;;;;-1.39;81.30;96825.48;1745091;81;21134;-89
2020/12/26 04:17:17;;;;;;;5.75;2.72;;;;;;;-1.42;81.26;96821.96;1744988;82;21158;-89
2020/12/26 04:19:44;;;;;;;4.03;2.67;;;;;;;-1.46;81.46;96814.27;1744985;81;21188;-89
2020/12/26 04:22:11;;;;;;;5.70;3.87;;;;;;;-1.46;81.41;96825.16;1744975;82;21166;-88
2020/12/26 04:24:38;;;;;;;6.47;4.12;;;;;;;-1.47;81.41;96824.36;1745088;82;21130;-89
2020/12/26 04:27:05;;;;;;;5.33;3.37;;;;;;;-1.50;81.46;96819.06;1745089;82;21150;-89
2020/12/26 04:29:31;;;;;;;7.35;4.22;;;;;;;-1.49;81.55;96822.46;1745008;81;21197;-89
2020/12/26 04:31:58;;;;;;;4.12;2.62;;;;;;;-1.50;81.45;96819.56;1745031;82;21505;-89
2020/12/26 04:34:25;;;;;;;5.47;3.75;;;;;;;-1.47;81.22;96830.86;1745142;82;21138;-89
2020/12/26 04:36:52;;;;;;;5.95;3.80;;;;;;;-1.43;81.02;96825.56;1745066;82;21182;-89
2020/12/26 04:39:19;;;;;;;5.60;3.15;;;;;;;-1.42;80.91;96828.46;1745125;81;21134;-89
2020/12/26 04:41:48;;;;;;;5.45;3.92;;;;;;;-1.39;80.82;96825.98;1745056;82;21146;-89
2020/12/26 04:44:17;;;;;;;6.12;3.50;;;;;;;-1.38;80.93;96831.49;1745043;82;21130;-89
2020/12/26 04:46:46;;;;;;;2.00;1.62;;;;;;;-1.35;80.94;96832.39;1745257;82;21142;-89
2020/12/26 04:49:16;;;;;;;5.92;2.50;;;;;;;-1.37;81.00;96838.30;1745024;81;21513;-89
2020/12/26 04:51:43;;;;;;;4.90;2.58;;;;;;;-1.43;81.09;96846.36;1744884;82;21154;-89
2020/12/26 04:54:15;;;;;;;4.97;3.05;;;;;;;-1.48;81.26;96846.66;1745038;82;21110;-88
2020/12/26 04:56:44;;;;;;;3.25;1.70;;;;;;;-1.54;81.59;96850.86;1745237;82;21141;-88
2020/12/26 04:59:13;;;;;;;2.70;2.00;;;;;;;-1.58;81.89;96856.13;1745220;81;21169;-89
2020/12/26 05:01:42;;;;;;;6.20;2.92;;;;;;;-1.63;82.29;96844.22;1745184;82;21149;-89
2020/12/26 05:04:10;;;;;;;4.25;3.08;;;;;;;-1.65;82.52;96865.71;1745004;82;21145;-89
2020/12/26 05:06:48;;;;;;;5.83;3.17;;;;;;;-1.67;82.92;96867.70;1745320;82;21150;-88
2020/12/26 05:09:18;;;;;;;8.08;4.33;;;;;;;-1.69;83.13;96861.41;1744932;81;21145;-89
2020/12/26 05:11:58;;;;;;;5.85;4.30;;;;;;;-1.68;82.98;96868.20;1745126;82;21264;-89
2020/12/26 05:14:31;;;;;;;5.65;3.72;;;;;;;-1.65;82.98;96865.71;1745259;82;21142;-90
2020/12/26 05:17:00;;;;;;;5.25;3.65;;;;;;;-1.62;82.78;96865.31;1745102;82;21473;-89
2020/12/26 05:19:27;;;;;;;5.45;3.00;;;;;;;-1.58;82.78;96870.42;1744907;81;21142;-89
2020/12/26 05:21:57;;;;;;;7.85;4.03;;;;;;;-1.52;82.77;96867.05;1744975;82;21130;-89
2020/12/26 05:24:25;;;;;;;4.85;3.67;;;;;;;-1.51;82.72;96866.86;1745114;82;21296;-89
2020/12/26 05:26:54;;;;;;;5.87;3.77;;;;;;;-1.43;82.82;96867.66;1745105;82;21162;-90
2020/12/26 05:29:24;;;;;;;7.62;4.20;;;;;;;-1.40;82.84;96864.20;1744929;81;21472;-89
2020/12/26 05:31:57;;;;;;;8.20;4.47;;;;;;;-1.36;82.92;96860.20;1745177;82;21154;-90
2020/12/26 05:34:38;;;;;;;8.05;4.22;;;;;;;-1.33;83.12;96861.59;1745063;82;21122;-89
2020/12/26 05:37:07;;;;;;;9.33;4.65;;;;;;;-1.38;83.24;96858.80;1745096;82;21154;-90
2020/12/26 05:39:37;;;;;;;6.20;3.75;;;;;;;-1.38;83.23;96863.50;1744945;81;21167;-90
2020/12/26 05:42:06;;;;;;;5.33;2.10;;;;;;;-1.38;82.99;96866.09;1745198;82;21121;-89
2020/12/26 05:44:37;;;;;;;3.55;1.85;;;;;;;-1.39;81.97;96861.89;1745026;82;21130;-90
2020/12/26 05:47:07;;;;;;;4.10;2.77;;;;;;;-1.41;81.28;96863.86;1745014;82;21135;-89
2020/12/26 05:49:39;;;;;;;4.47;2.02;;;;;;;-1.45;81.03;96869.16;1744993;81;21149;-90
2020/12/26 05:52:14;;;;;;;4.50;2.70;;;;;;;-1.47;81.16;96869.06;1745054;82;21514;-89
2020/12/26 05:54:52;;;;;;;5.08;2.47;;;;;;;-1.50;81.23;96871.06;1745037;82;21165;-89
2020/12/26 05:57:20;;;;;;;5.67;3.55;;;;;;;-1.51;81.23;96880.36;1745273;82;21111;-89
2020/12/26 05:59:54;;;;;;;6.40;4.10;;;;;;;-1.52;81.56;96885.25;1747178;81;21146;-89
2020/12/26 06:02:30;;;;;;;6.87;3.95;;;;;;;-1.52;81.60;96887.86;1766879;81;21151;-89
2020/12/26 06:05:06;;;;;;;6.37;3.65;;;;;;;-1.52;81.74;96888.66;1766622;81;21134;-90
2020/12/26 06:07:37;;;;;;;6.50;3.98;;;;;;;-1.52;81.82;96885.25;1766872;81;21120;-89
2020/12/26 06:10:06;;;;;;;;;;;;;;;-1.52;81.85;96888.66;1769213;80;21127;-90
2020/12/26 06:12:35;;;;;;;6.67;3.58;;;;;;;-1.55;81.87;96894.72;1766700;81;20335;-89
2020/12/26 06:15:03;;;;;;;55.78;26.37;;;;;;;-1.58;81.93;96896.41;1766565;81;21159;-89
2020/12/26 06:17:33;;;;;;;13.08;7.50;;;;;;;-1.60;82.01;96893.21;1766911;81;21147;-90
2020/12/26 06:20:05;;;;;;;30.95;20.35;;;;;;;-1.62;82.01;96887.41;1766744;80;21167;-90
2020/12/26 06:22:51;;;;;;;61.75;30.82;;;;;;;-1.62;82.00;96893.91;1766683;81;21150;-89
2020/12/26 06:25:23;;;;;;;17.42;10.98;;;;;;;-1.62;81.99;96888.21;1766703;81;21523;-89
2020/12/26 06:27:56;;;;;;;9.70;5.67;;;;;;;-1.58;82.03;96893.81;1766788;80;21159;-89
2020/12/26 06:30:23;;;;;;;8.45;4.90;;;;;;;-1.53;82.09;96903.16;1766650;81;21174;-90
2020/12/26 06:32:51;;;;;;;5.78;4.15;;;;;;;-1.48;82.11;96895.56;1766608;81;21190;-90
2020/12/26 06:35:20;;;;;;;7.03;4.50;;;;;;;-1.42;82.01;96901.27;1766608;81;21150;-89
2020/12/26 06:37:50;;;;;;;17.27;11.00;;;;;;;-1.41;82.20;96891.16;1766615;81;21119;-90
2020/12/26 06:40:31;;;;;;;20.60;14.60;;;;;;;-1.41;82.20;96891.16;1766141;81;21151;-90
2020/12/26 06:42:58;;;;;;;9.65;6.47;;;;;;;-1.24;81.83;96908.05;1766747;81;21139;-90
2020/12/26 06:45:36;;;;;;;7.92;4.58;;;;;;;-1.21;81.76;96917.25;1766675;81;21147;-90
2020/12/26 06:48:04;;;;;;;7.35;4.00;;;;;;;-1.21;81.76;96917.25;1766559;80;21147;-89
2020/12/26 06:50:34;;;;;;;7.87;4.40;;;;;;;-1.22;81.70;96922.95;1739891;81;21107;-89
2020/12/26 06:53:03;;;;;;;7.90;4.65;;;;;;;-1.24;81.68;96927.55;1766583;80;21154;-89
2020/12/26 06:55:44;;;;;;;9.15;3.92;;;;;;;-1.24;81.71;96939.75;1766572;81;21108;-89
2020/12/26 06:58:32;;;;;;;6.25;4.33;;;;;;;-1.21;82.08;96950.56;1766501;80;21146;-89
2020/12/26 07:00:59;;;;;;;12.58;8.18;;;;;;;-1.21;82.08;96950.56;1766514;81;21566;-90
2020/12/26 07:03:29;;;;;;;7.55;4.80;;;;;;;-1.18;81.90;96947.27;1766543;81;21151;-89
2020/12/26 07:05:58;;;;;;;7.30;4.87;;;;;;;-1.22;81.98;96942.96;1766737;81;21175;-90
2020/12/26 07:08:31;;;;;;;8.78;5.25;;;;;;;-1.18;82.04;96953.77;1766523;80;21155;-90
2020/12/26 07:11:06;;;;;;;10.60;7.60;;;;;;;-1.22;82.20;96958.06;1765962;81;21538;-90
2020/12/26 07:13:49;;;;;;;8.45;5.05;;;;;;;-1.30;82.13;96946.52;1762738;81;21135;-90
2020/12/26 07:16:44;;;;;;;7.37;4.65;;;;;;;-1.17;82.36;96970.98;1766606;81;21123;-89
2020/12/26 07:19:24;;;;;;;6.05;3.42;;;;;;;-1.25;82.53;96971.47;1766484;80;21190;-90
2020/12/26 07:21:56;;;;;;;10.72;4.83;;;;;;;-1.30;82.83;96973.83;1766685;81;21134;-89
2020/12/26 07:24:33;;;;;;;8.23;4.53;;;;;;;-1.35;83.00;96972.32;1766555;81;21147;-89
2020/12/26 07:27:34;;;;;;;10.43;4.50;;;;;;;-1.41;83.29;96977.48;1766781;81;21486;-89
2020/12/26 07:30:17;;;;;;;6.20;3.72;;;;;;;-1.35;83.35;96985.32;1766575;80;21171;-90
2020/12/26 07:32:58;;;;;;;17.65;9.10;;;;;;;-1.35;83.35;96985.32;1766657;81;21486;-89
2020/12/26 07:35:39;;;;;;;10.23;5.85;;;;;;;-1.32;83.47;96991.43;1766565;81;21135;-90
2020/12/26 07:38:16;;;;;;;13.50;6.60;;;;;;;-1.28;83.43;96988.73;1767098;80;21126;-89
2020/12/26 07:40:46;;;;;;;14.68;7.67;;;;;;;-1.20;83.45;96988.58;1766563;81;21499;-89
2020/12/26 07:43:17;;;;;;;25.85;11.78;;;;;;;-1.16;83.31;96992.09;1766959;81;21092;-89
2020/12/26 07:45:46;;;;;;;10.90;5.87;;;;;;;-1.17;83.20;96995.69;1766933;81;21128;-89
2020/12/26 07:48:14;;;;;;;9.18;4.00;;;;;;;-1.21;83.24;96992.69;1741420;81;21139;-89
2020/12/26 07:50:43;;;;;;;24.43;9.63;;;;;;;-1.26;83.51;97002.38;1766569;81;21542;-89
2020/12/26 07:53:13;;;;;;;19.05;9.68;;;;;;;-1.29;83.69;97004.04;1766822;81;21482;-89
2020/12/26 07:55:40;;;;;;;34.18;14.55;;;;;;;-1.30;83.75;96996.44;1766790;81;21277;-89
2020/12/26 07:58:16;;;;;;;7.53;4.25;;;;;;;-1.29;83.81;97000.14;1766786;80;21518;-90
2020/12/26 08:00:45;;;;;;;6.00;3.45;;;;;;;-1.28;83.56;96992.64;1766586;81;21545;-89
2020/12/26 08:03:15;;;;;;;4.83;2.87;;;;;;;-1.26;83.20;97002.38;1766995;81;21183;-90
2020/12/26 08:05:48;;;;;;;6.90;4.45;;;;;;;-1.26;83.02;97002.38;1766836;81;21281;-90
2020/12/26 08:08:23;;;;;;;9.33;4.87;;;;;;;-1.24;82.62;97000.88;1766924;80;21174;-90
2020/12/26 08:10:58;;;;;;;14.18;5.90;;;;;;;-1.22;82.57;97004.89;1766621;81;21151;-89
2020/12/26 08:13:26;;;;;;;10.48;5.37;;;;;;;-1.20;82.54;97004.19;1766815;81;21151;-90
2020/12/26 08:16:05;;;;;;;4.62;3.58;;;;;;;-1.17;82.49;97007.39;1766793;81;21185;-89
2020/12/26 08:18:36;;;;;;;9.23;5.22;;;;;;;-1.16;82.05;97008.50;1766943;80;21127;-89
2020/12/26 08:21:06;;;;;;;5.90;3.50;;;;;;;-1.16;82.03;97016.80;1766719;81;21131;-90
2020/12/26 08:23:34;;;;;;;9.85;5.42;;;;;;;-1.16;81.81;97014.20;1767048;81;21526;-89
2020/12/26 08:26:02;;;;;;;7.65;4.37;;;;;;;-1.16;81.74;97024.11;1766694;81;21164;-89
2020/12/26 08:28:30;;;;;;;6.80;3.80;;;;;;;-1.15;81.85;97024.41;1766769;80;21508;-90
2020/12/26 08:31:02;;;;;;;10.48;5.12;;;;;;;-1.13;81.75;97028.91;1766604;81;21167;-90
2020/12/26 08:33:32;;;;;;;9.00;3.98;;;;;;;-1.11;81.74;97034.75;1741211;81;21096;-90
2020/12/26 08:36:23;;;;;;;6.50;3.90;;;;;;;-1.11;81.45;97030.85;1766813;81;21120;-89
2020/12/26 08:38:57;;;;;;;6.03;2.87;;;;;;;-1.09;81.51;97041.86;1766937;80;21147;-89
2020/12/26 08:41:26;;;;;;;13.53;6.80;;;;;;;-1.06;81.44;97038.06;1766637;81;21494;-89
2020/12/26 08:43:54;;;;;;;9.60;5.30;;;;;;;-1.05;81.51;97042.27;1767009;81;21159;-89
2020/12/26 08:46:25;;;;;;;8.68;4.85;;;;;;;-1.01;81.56;97048.69;1766642;81;21151;-89
2020/12/26 08:48:55;;;;;;;;;;;;;;;-0.94;81.46;97039.92;1769365;80;21184;-89
2020/12/26 08:51:27;;;;;;;6.92;4.17;;;;;;;-0.82;81.23;97038.87;1736448;82;20188;-89
2020/12/26 08:53:56;;;;;;;7.55;5.28;;;;;;;-0.73;81.18;97038.97;1736597;83;21158;-89
2020/12/26 08:56:35;;;;;;;6.92;4.05;;;;;;;-0.55;81.08;97043.65;1736296;83;21162;-89
2020/12/26 08:59:03;;;;;;;8.00;5.10;;;;;;;-0.43;80.54;97041.23;1736324;81;21216;-90
2020/12/26 09:01:32;;;;;;;4.72;2.67;;;;;;;-0.34;80.88;97045.27;1736339;82;21202;-90
2020/12/26 09:03:59;;;;;;;5.47;3.37;;;;;;;-0.34;79.67;97049.19;1736376;82;21490;-90
2020/12/26 09:06:35;;;;;;;6.35;3.80;;;;;;;-0.39;79.82;97055.00;1736319;82;21115;-90
2020/12/26 09:09:20;;;;;;;8.80;3.33;;;;;;;-0.44;79.69;97050.86;1736578;81;21193;-90
2020/12/26 09:12:04;;;;;;;8.55;6.03;;;;;;;-0.45;79.60;97054.47;1736319;82;21115;-89
2020/12/26 09:14:31;;;;;;;8.08;3.90;;;;;;;-0.49;79.94;97062.88;1735827;82;21163;-89
2020/12/26 09:17:02;;;;;;;6.22;3.83;;;;;;;-0.50;80.22;97061.27;1736311;83;21546;-89
2020/12/26 09:19:47;;;;;;;5.75;3.85;;;;;;;-0.50;80.27;97054.77;1744051;81;21176;-90
2020/12/26 09:22:14;;;;;;;6.10;3.60;;;;;;;-0.60;79.99;97055.13;1766484;81;21480;-90
2020/12/26 09:24:43;;;;;;;10.03;5.10;;;;;;;-0.67;80.32;97045.22;1766929;81;21166;-90
2020/12/26 09:27:22;;;;;;;6.35;3.67;;;;;;;-0.56;80.59;97064.65;1766657;80;21250;-90
2020/12/26 09:29:55;;;;;;;8.38;4.20;;;;;;;-0.55;80.20;97057.97;1766742;80;21136;-90
2020/12/26 09:32:23;;;;;;;4.10;2.40;;;;;;;-0.58;80.09;97051.83;1762029;81;21137;-89
2020/12/26 09:34:50;;;;;;;8.08;3.27;;;;;;;-0.56;79.82;97072.46;1766650;81;21155;-90
2020/12/26 09:37:17;;;;;;;4.17;2.87;;;;;;;-0.56;79.87;97064.65;1766653;81;21115;-89
2020/12/26 09:39:44;;;;;;;5.15;3.35;;;;;;;-0.62;79.69;97064.45;1766908;80;21158;-90
2020/12/26 09:42:11;;;;;;;8.93;5.45;;;;;;;-0.74;80.86;97063.41;1740752;81;21167;-90
2020/12/26 09:44:38;;;;;;;9.23;4.75;;;;;;;-0.74;80.86;97063.41;1766889;81;21155;-90
2020/12/26 09:47:06;;;;;;;6.37;2.85;;;;;;;-0.77;81.72;97062.50;1766615;81;21495;-89
2020/12/26 09:49:34;;;;;;;8.43;4.20;;;;;;;-0.80;81.78;97062.89;1766734;80;21163;-90
2020/12/26 09:52:01;;;;;;;5.55;3.83;;;;;;;-0.82;82.03;97058.89;1766547;81;21175;-89
2020/12/26 09:54:28;;;;;;;6.25;3.30;;;;;;;-0.82;82.12;97065.39;1766654;81;21144;-89
2020/12/26 09:56:56;;;;;;;4.33;2.45;;;;;;;-0.81;82.42;97064.39;1766643;81;21166;-89
2020/12/26 09:59:24;;;;;;;5.03;3.25;;;;;;;-0.76;82.83;97060.20;1766785;80;21527;-89
2020/12/26 10:01:51;;;;;;;4.30;3.08;;;;;;;-0.74;82.87;97066.00;1766504;81;21548;-89
2020/12/26 10:04:18;;;;;;;5.75;3.22;;;;;;;-0.74;82.87;97066.00;1766806;81;21167;-89
2020/12/26 10:06:46;;;;;;;7.70;3.67;;;;;;;-0.73;82.63;97071.52;1766560;81;21163;-90
2020/12/26 10:09:14;;;;;;;6.85;3.60;;;;;;;-0.70;82.80;97071.15;1766686;80;21154;-89
2020/12/26 10:11:42;;;;;;;7.62;4.37;;;;;;;-0.70;82.80;97071.15;1766513;81;21127;-90
2020/12/26 10:14:09;;;;;;;7.97;4.25;;;;;;;-0.63;82.85;97049.83;1766910;81;21155;-90
2020/12/26 10:16:37;;;;;;;6.55;3.58;;;;;;;-0.65;82.76;97046.62;1766749;81;21140;-90
2020/12/26 10:19:05;;;;;;;6.53;3.42;;;;;;;-0.53;82.73;97065.08;1766529;80;21162;-90
2020/12/26 10:21:34;;;;;;;7.55;4.78;;;;;;;-0.50;82.57;97068.59;1766479;81;21147;-89
2020/12/26 10:24:01;;;;;;;7.58;4.65;;;;;;;-0.55;82.95;97078.00;1766692;81;21535;-89
2020/12/26 10:26:28;;;;;;;11.45;5.87;;;;;;;-0.55;82.95;97078.00;1766579;81;21116;-89
2020/12/26 10:28:55;;;;;;;7.55;4.03;;;;;;;-0.53;82.92;97087.72;1766872;80;21127;-90
2020/12/26 10:31:30;;;;;;;9.55;4.70;;;;;;;-0.52;82.90;97086.72;1766586;81;21179;-89
2020/12/26 10:33:57;;;;;;;8.63;4.85;;;;;;;-0.66;82.98;97065.84;1766796;81;21120;-89
2020/12/26 10:36:24;;;;;;;5.00;3.02;;;;;;;-0.62;82.91;97083.97;1766716;81;21151;-89
2020/12/26 10:38:52;;;;;;;7.50;3.92;;;;;;;-0.63;83.12;97081.57;1766592;80;21171;-89
2020/12/26 10:41:21;;;;;;;11.33;4.85;;;;;;;-0.66;83.33;97081.47;1766601;81;21155;-89
2020/12/26 10:43:49;;;;;;;6.45;3.92;;;;;;;-0.66;83.35;97078.06;1766682;81;21329;-89
2020/12/26 10:46:16;;;;;;;8.60;5.30;;;;;;;-0.58;83.10;97073.16;1766608;81;21512;-89
2020/12/26 10:48:43;;;;;;;8.63;4.75;;;;;;;-0.47;82.71;97069.48;1766515;80;21170;-89
2020/12/26 10:51:11;;;;;;;7.90;4.45;;;;;;;-0.36;82.19;97066.31;1766397;81;21147;-89
2020/12/26 10:53:38;;;;;;;7.03;4.55;;;;;;;-0.36;82.19;97066.31;1766779;81;21136;-89
2020/12/26 10:56:06;;;;;;;9.28;4.95;;;;;;;-0.36;81.58;97047.28;1766531;81;21139;-89
2020/12/26 10:58:33;;;;;;;8.83;4.42;;;;;;;-0.27;81.48;97065.64;1766751;80;21120;-89
2020/12/26 11:01:01;;;;;;;4.67;3.47;;;;;;;-0.21;81.08;97069.24;1766482;81;21490;-89
2020/12/26 11:03:29;;;;;;;6.37;4.20;;;;;;;-0.31;79.91;97074.33;1766560;81;21131;-89
2020/12/26 11:05:59;;;;;;;7.25;5.10;;;;;;;-0.39;79.48;97072.42;1766691;81;21507;-89
2020/12/26 11:08:26;;;;;;;8.23;4.42;;;;;;;-0.39;79.73;97075.03;1766514;80;21158;-89
2020/12/26 11:10:53;;;;;;;8.13;4.12;;;;;;;-0.42;79.64;97072.83;1766556;81;21179;-89
2020/12/26 11:13:20;;;;;;;4.97;2.72;;;;;;;-0.44;79.55;97077.41;1766635;81;21523;-89
2020/12/26 11:15:47;;;;;;;9.23;3.70;;;;;;;-0.53;79.39;97065.08;1766549;81;21127;-89
2020/12/26 11:18:14;;;;;;;7.03;5.03;;;;;;;-0.43;79.01;97064.68;1766626;80;21166;-89
2020/12/26 11:20:42;;;;;;;8.50;3.65;;;;;;;-0.51;78.33;97047.45;1766733;81;21154;-89
2020/12/26 11:23:10;;;;;;;8.83;4.17;;;;;;;-0.51;78.33;97047.45;1766689;81;21138;-89
2020/12/26 11:25:37;;;;;;;5.70;3.42;;;;;;;-0.56;78.52;97039.91;1767006;81;21147;-89
2020/12/26 11:28:04;;;;;;;8.00;4.30;;;;;;;-0.36;78.76;97072.83;1766765;80;21162;-89
2020/12/26 11:30:31;;;;;;;5.20;3.30;;;;;;;-0.37;78.51;97070.42;1766775;81;21155;-89
2020/12/26 11:32:58;;;;;;;4.78;2.92;;;;;;;-0.35;78.30;97070.52;1766643;81;21301;-88
2020/12/26 11:35:25;;;;;;;5.10;3.17;;;;;;;-0.54;78.21;97050.95;1766733;81;21146;-89
2020/12/26 11:37:52;;;;;;;9.08;4.17;;;;;;;-0.54;78.21;97050.95;1766668;80;21151;-89
2020/12/26 11:40:19;;;;;;;7.75;4.30;;;;;;;-0.40;78.70;97065.61;1766736;81;21142;-89
2020/12/26 11:42:47;;;;;;;10.30;4.97;;;;;;;-0.40;78.70;97065.61;1766777;81;21143;-89